Ocean Navigator — WSC2552 — position and weather

sailwx.info

Track history (hours):
 
Tides and Currents Weather Stations Pressure Air Temp Water Temp Dewpoint Dewpoint Depression Visibility Wind Speed Wind Dir Waves Ship Positions

Ocean Navigator

Owner: OCEAN NAVIGATOR INC, SEATTLE, WA. More information available from US FCC via Universal Licensing System and Coast Guard Vessel Documentation Center.

Last reported at 2015-Sep-04 08:10 UTC. Time now 2015-Sep-04 10:23 UTC.
Position N 48°25' W 122°45'.

Type: Tow > 200 m length. MMSI: 366358000.

Date/timePositionNaut miles runAvg speedWind from/ knotsBaromVisibWave heightAir tempDewpointWater temp
2015-Sep-04 08:10N 48°25' W 122°45'812.7
2015-Sep-04 07:33N 48°33' W 122°45'1110.8
2015-Sep-04 06:33N 48°43' W 122°46'10 9.8
2015-Sep-04 05:32N 48°49' W 122°58'1010.0
2015-Sep-04 04:33N 48°55' W 123°10'10 9.6
2015-Sep-04 03:34N 49°01' W 123°21'9 9.2
2015-Sep-04 02:34N 49°08' W 123°30'9 9.2
2015-Sep-04 01:34N 49°15' W 123°40'9 9.1
2015-Sep-04 00:33N 49°21' W 123°49'9 9.0
2015-Sep-03 23:34N 49°26' W 124°01'9 8.7
2015-Sep-03 22:34N 49°31' W 124°12'9 9.3
2015-Sep-03 21:34N 49°35' W 124°25'9 9.3
2015-Sep-03 20:33N 49°40' W 124°37'8 7.5
2015-Sep-03 19:32N 49°44' W 124°47'9 9.1
2015-Sep-03 18:33N 49°50' W 124°58'9 9.4
2015-Sep-03 17:33N 49°57' W 125°08'9 8.9
2015-Sep-03 16:32N 50°04' W 125°15'9 8.2
2015-Sep-03 15:28N 50°12' W 125°22'2 2.2
2015-Sep-03 14:29N 50°14' W 125°23'72 6.9
2015-Sep-03 04:04N 50°45' W 127°05'4 7.9
2015-Sep-03 03:32N 50°47' W 127°11'9 8.8
2015-Sep-03 02:33N 50°53' W 127°21'8 8.2
2015-Sep-03 01:33N 50°58' W 127°31'8 8.3
2015-Sep-03 00:33N 51°04' W 127°40'26 8.1
2015-Sep-02 21:18N 51°29' W 127°52'  
2015-Aug-30 15:33N 51°34' W 127°52'19 9.5
2015-Aug-30 13:30N 51°15' W 127°53'1010.0
2015-Aug-30 12:31N 51°06' W 127°45'1010.5
2015-Aug-30 11:33N 50°59' W 127°34'1010.4
2015-Aug-30 10:33N 50°53' W 127°21'10 9.9
2015-Aug-30 09:33N 50°46' W 127°09'18 8.6
2015-Aug-30 07:28N 50°36' W 126°45'57 9.6
2015-Aug-30 01:33N 50°14' W 125°23'18 5.8
2015-Aug-29 22:28N 49°58' W 125°11'4 4.3
2015-Aug-29 21:31N 49°56' W 125°06'7 6.5
2015-Aug-29 20:30N 49°51' W 124°59'6 6.2
2015-Aug-29 19:28N 49°47' W 124°51'8 7.8
2015-Aug-29 18:28N 49°43' W 124°41'7 8.0
2015-Aug-29 17:33N 49°39' W 124°31'9 9.1
2015-Aug-29 16:33N 49°34' W 124°20'10 9.8
2015-Aug-29 15:33N 49°28' W 124°07'1010.0
2015-Aug-29 14:33N 49°22' W 123°55'9 9.4
2015-Aug-29 13:33N 49°16' W 123°44'1010.0
2015-Aug-29 12:33N 49°10' W 123°31'1010.2
2015-Aug-29 11:33N 49°04' W 123°20'1110.6
2015-Aug-29 10:33N 48°56' W 123°08'1110.8
2015-Aug-29 09:31N 48°49' W 122°55'1010.4
2015-Aug-29 08:33N 48°42' W 122°44'9 8.9
2015-Aug-29 07:33N 48°33' W 122°45'9 9.2
2015-Aug-29 06:33N 48°24' W 122°44'18 8.9
2015-Aug-29 04:31N 48°07' W 122°39'1111.4
2015-Aug-29 03:33N 47°57' W 122°31'1010.0
2015-Aug-29 02:33N 47°47' W 122°26'10 9.8
2015-Aug-29 01:33N 47°38' W 122°26'6 5.6
2015-Aug-29 00:30N 47°33' W 122°20'0 0.0
2015-Aug-28 23:32N 47°33' W 122°20'0 0.0
2015-Aug-28 22:33N 47°33' W 122°20'5 5.1
2015-Aug-28 21:33N 47°37' W 122°25'3 2.8
2015-Aug-28 20:33N 47°40' W 122°24'0 0.0
2015-Aug-28 02:25N 47°40' W 122°24'5 5.5
2015-Aug-28 01:33N 47°35' W 122°22'4 3.6
2015-Aug-28 00:33N 47°38' W 122°26'9 9.3
2015-Aug-27 23:33N 47°47' W 122°27'1010.1
2015-Aug-27 22:33N 47°56' W 122°33'3110.1
2015-Aug-27 19:32N 48°26' W 122°44'9 9.0
2015-Aug-27 18:33N 48°35' W 122°45'9 8.9
2015-Aug-27 17:33N 48°44' W 122°46'1010.2
2015-Aug-27 16:33N 48°49' W 122°59'1110.5
2015-Aug-27 15:33N 48°56' W 123°12'1110.7
2015-Aug-27 14:33N 49°03' W 123°24'10 9.7
2015-Aug-27 13:33N 49°10' W 123°34'1010.1
2015-Aug-27 12:33N 49°16' W 123°46'1010.3
2015-Aug-27 11:33N 49°23' W 123°58'1010.0
2015-Aug-27 10:33N 49°30' W 124°10'1010.1
2015-Aug-27 09:33N 49°34' W 124°24'1010.1
2015-Aug-27 08:31N 49°40' W 124°37'1010.4
2015-Aug-27 07:33N 49°46' W 124°50'1010.2
2015-Aug-27 06:33N 49°53' W 125°02'10 9.8
2015-Aug-27 05:33N 49°60' W 125°12'9 8.8
2015-Aug-27 04:33N 50°07' W 125°20'8 7.9
2015-Aug-27 03:32N 50°15' W 125°23'73 7.9
2015-Aug-26 18:16N 50°45' W 127°07'8 9.9
2015-Aug-26 17:29N 50°50' W 127°17'1010.3
2015-Aug-26 16:33N 50°57' W 127°28'10 9.8
2015-Aug-26 15:34N 51°03' W 127°40'10 9.2
2015-Aug-26 14:30N 51°10' W 127°51'18 9.1
2015-Aug-26 12:33N 51°26' W 128°04'  
Track history (hours):
 
Tides and Currents Weather Stations Pressure Air Temp Water Temp Dewpoint Dewpoint Depression Visibility Wind Speed Wind Dir Waves Ship Positions

Ocean Navigator

Owner: OCEAN NAVIGATOR INC, SEATTLE, WA. More information available from US FCC via Universal Licensing System and Coast Guard Vessel Documentation Center.

Last reported at 2015-Sep-04 08:10 UTC. Time now 2015-Sep-04 10:23 UTC.
Position N 48°25' W 122°45'.

Type: Tow > 200 m length. MMSI: 366358000.

Date/timePositionNaut miles runAvg speedWind from/ knotsBaromVisibWave heightAir tempDewpointWater temp
2015-Sep-04 08:10N 48°25' W 122°45'812.7
2015-Sep-04 07:33N 48°33' W 122°45'1110.8
2015-Sep-04 06:33N 48°43' W 122°46'10 9.8
2015-Sep-04 05:32N 48°49' W 122°58'1010.0
2015-Sep-04 04:33N 48°55' W 123°10'10 9.6
2015-Sep-04 03:34N 49°01' W 123°21'9 9.2
2015-Sep-04 02:34N 49°08' W 123°30'9 9.2
2015-Sep-04 01:34N 49°15' W 123°40'9 9.1
2015-Sep-04 00:33N 49°21' W 123°49'9 9.0
2015-Sep-03 23:34N 49°26' W 124°01'9 8.7
2015-Sep-03 22:34N 49°31' W 124°12'9 9.3
2015-Sep-03 21:34N 49°35' W 124°25'9 9.3
2015-Sep-03 20:33N 49°40' W 124°37'8 7.5
2015-Sep-03 19:32N 49°44' W 124°47'9 9.1
2015-Sep-03 18:33N 49°50' W 124°58'9 9.4
2015-Sep-03 17:33N 49°57' W 125°08'9 8.9
2015-Sep-03 16:32N 50°04' W 125°15'9 8.2
2015-Sep-03 15:28N 50°12' W 125°22'2 2.2
2015-Sep-03 14:29N 50°14' W 125°23'72 6.9
2015-Sep-03 04:04N 50°45' W 127°05'4 7.9
2015-Sep-03 03:32N 50°47' W 127°11'9 8.8
2015-Sep-03 02:33N 50°53' W 127°21'8 8.2
2015-Sep-03 01:33N 50°58' W 127°31'8 8.3
2015-Sep-03 00:33N 51°04' W 127°40'26 8.1
2015-Sep-02 21:18N 51°29' W 127°52'  
2015-Aug-30 15:33N 51°34' W 127°52'19 9.5
2015-Aug-30 13:30N 51°15' W 127°53'1010.0
2015-Aug-30 12:31N 51°06' W 127°45'1010.5
2015-Aug-30 11:33N 50°59' W 127°34'1010.4
2015-Aug-30 10:33N 50°53' W 127°21'10 9.9
2015-Aug-30 09:33N 50°46' W 127°09'18 8.6
2015-Aug-30 07:28N 50°36' W 126°45'57 9.6
2015-Aug-30 01:33N 50°14' W 125°23'18 5.8
2015-Aug-29 22:28N 49°58' W 125°11'4 4.3
2015-Aug-29 21:31N 49°56' W 125°06'7 6.5
2015-Aug-29 20:30N 49°51' W 124°59'6 6.2
2015-Aug-29 19:28N 49°47' W 124°51'8 7.8
2015-Aug-29 18:28N 49°43' W 124°41'7 8.0
2015-Aug-29 17:33N 49°39' W 124°31'9 9.1
2015-Aug-29 16:33N 49°34' W 124°20'10 9.8
2015-Aug-29 15:33N 49°28' W 124°07'1010.0
2015-Aug-29 14:33N 49°22' W 123°55'9 9.4
2015-Aug-29 13:33N 49°16' W 123°44'1010.0
2015-Aug-29 12:33N 49°10' W 123°31'1010.2
2015-Aug-29 11:33N 49°04' W 123°20'1110.6
2015-Aug-29 10:33N 48°56' W 123°08'1110.8
2015-Aug-29 09:31N 48°49' W 122°55'1010.4
2015-Aug-29 08:33N 48°42' W 122°44'9 8.9
2015-Aug-29 07:33N 48°33' W 122°45'9 9.2
2015-Aug-29 06:33N 48°24' W 122°44'18 8.9
2015-Aug-29 04:31N 48°07' W 122°39'1111.4
2015-Aug-29 03:33N 47°57' W 122°31'1010.0
2015-Aug-29 02:33N 47°47' W 122°26'10 9.8
2015-Aug-29 01:33N 47°38' W 122°26'6 5.6
2015-Aug-29 00:30N 47°33' W 122°20'0 0.0
2015-Aug-28 23:32N 47°33' W 122°20'0 0.0
2015-Aug-28 22:33N 47°33' W 122°20'5 5.1
2015-Aug-28 21:33N 47°37' W 122°25'3 2.8
2015-Aug-28 20:33N 47°40' W 122°24'0 0.0
2015-Aug-28 02:25N 47°40' W 122°24'5 5.5
2015-Aug-28 01:33N 47°35' W 122°22'4 3.6
2015-Aug-28 00:33N 47°38' W 122°26'9 9.3
2015-Aug-27 23:33N 47°47' W 122°27'1010.1
2015-Aug-27 22:33N 47°56' W 122°33'3110.1
2015-Aug-27 19:32N 48°26' W 122°44'9 9.0
2015-Aug-27 18:33N 48°35' W 122°45'9 8.9
2015-Aug-27 17:33N 48°44' W 122°46'1010.2
2015-Aug-27 16:33N 48°49' W 122°59'1110.5
2015-Aug-27 15:33N 48°56' W 123°12'1110.7
2015-Aug-27 14:33N 49°03' W 123°24'10 9.7
2015-Aug-27 13:33N 49°10' W 123°34'1010.1
2015-Aug-27 12:33N 49°16' W 123°46'1010.3
2015-Aug-27 11:33N 49°23' W 123°58'1010.0
2015-Aug-27 10:33N 49°30' W 124°10'1010.1
2015-Aug-27 09:33N 49°34' W 124°24'1010.1
2015-Aug-27 08:31N 49°40' W 124°37'1010.4
2015-Aug-27 07:33N 49°46' W 124°50'1010.2
2015-Aug-27 06:33N 49°53' W 125°02'10 9.8
2015-Aug-27 05:33N 49°60' W 125°12'9 8.8
2015-Aug-27 04:33N 50°07' W 125°20'8 7.9
2015-Aug-27 03:32N 50°15' W 125°23'73 7.9
2015-Aug-26 18:16N 50°45' W 127°07'8 9.9
2015-Aug-26 17:29N 50°50' W 127°17'1010.3
2015-Aug-26 16:33N 50°57' W 127°28'10 9.8
2015-Aug-26 15:34N 51°03' W 127°40'10 9.2
2015-Aug-26 14:30N 51°10' W 127°51'18 9.1
2015-Aug-26 12:33N 51°26' W 128°04'  

Dump ship's entire track history